Aviation Digital Data Service (ADDS)

Output produced by TAFs form (0704 UTC 21 October 2014)
found at http://aviationweather.gov/adds/tafs/
 
KGUP 210534Z 2106/2206 VRB06KT P6SM BKN050 OVC090 
     FM211100 VRB06KT P6SM SCT040 SCT100 
     FM211900 23010KT P6SM VCTS SCT050CB BKN120